sensor_id;sensor_type;location;lat;lon;timestamp;pressure;altitude;pressure_sealevel;temperature;humidity
67840;BME280;54636;51.684;5.142;2023-03-14T00:01:08;98972.50;;;10.97;98.14
67840;BME280;54636;51.684;5.142;2023-03-14T00:03:34;98984.19;;;11.05;98.18
67840;BME280;54636;51.684;5.142;2023-03-14T00:06:04;98978.56;;;11.03;97.57
67840;BME280;54636;51.684;5.142;2023-03-14T00:08:29;98980.59;;;11.10;97.45
67840;BME280;54636;51.684;5.142;2023-03-14T00:10:54;98964.28;;;10.89;97.74
67840;BME280;54636;51.684;5.142;2023-03-14T00:13:20;98988.41;;;10.93;98.33
67840;BME280;54636;51.684;5.142;2023-03-14T00:15:45;98989.78;;;10.86;99.17
67840;BME280;54636;51.684;5.142;2023-03-14T00:18:10;98996.66;;;10.87;99.39
67840;BME280;54636;51.684;5.142;2023-03-14T00:20:36;98993.63;;;10.91;98.51
67840;BME280;54636;51.684;5.142;2023-03-14T00:23:01;98985.91;;;10.95;97.90
67840;BME280;54636;51.684;5.142;2023-03-14T00:25:27;98996.88;;;10.89;97.80
67840;BME280;54636;51.684;5.142;2023-03-14T00:27:53;98975.34;;;10.91;96.33
67840;BME280;54636;51.684;5.142;2023-03-14T00:30:18;98995.75;;;11.05;94.89
67840;BME280;54636;51.684;5.142;2023-03-14T00:32:44;98978.16;;;10.99;93.61
67840;BME280;54636;51.684;5.142;2023-03-14T00:35:09;98995.50;;;10.96;93.26
67840;BME280;54636;51.684;5.142;2023-03-14T00:37:35;98995.94;;;10.86;93.44
67840;BME280;54636;51.684;5.142;2023-03-14T00:40:00;98967.94;;;10.92;91.40
67840;BME280;54636;51.684;5.142;2023-03-14T00:42:26;98977.41;;;10.98;90.09
67840;BME280;54636;51.684;5.142;2023-03-14T00:44:51;98970.03;;;10.85;89.50
67840;BME280;54636;51.684;5.142;2023-03-14T00:47:16;98986.22;;;11.12;87.73
67840;BME280;54636;51.684;5.142;2023-03-14T00:49:42;98989.75;;;10.99;88.20
67840;BME280;54636;51.684;5.142;2023-03-14T00:52:09;98975.75;;;10.95;89.53
67840;BME280;54636;51.684;5.142;2023-03-14T00:54:34;98978.09;;;10.78;91.58
67840;BME280;54636;51.684;5.142;2023-03-14T00:56:59;98963.28;;;10.66;92.83
67840;BME280;54636;51.684;5.142;2023-03-14T00:59:25;98988.75;;;10.76;94.08
67840;BME280;54636;51.684;5.142;2023-03-14T01:01:50;98979.66;;;10.73;94.01
67840;BME280;54636;51.684;5.142;2023-03-14T01:04:15;98985.41;;;10.83;93.02
67840;BME280;54636;51.684;5.142;2023-03-14T01:06:41;98986.44;;;10.80;93.42
67840;BME280;54636;51.684;5.142;2023-03-14T01:09:06;98995.66;;;10.77;92.59
67840;BME280;54636;51.684;5.142;2023-03-14T01:11:33;99002.22;;;10.81;92.85
67840;BME280;54636;51.684;5.142;2023-03-14T01:14:00;98988.25;;;10.64;92.25
67840;BME280;54636;51.684;5.142;2023-03-14T01:16:27;98993.16;;;10.66;93.42
67840;BME280;54636;51.684;5.142;2023-03-14T01:18:54;98975.41;;;10.65;93.06
67840;BME280;54636;51.684;5.142;2023-03-14T01:21:25;99000.97;;;10.69;93.36
67840;BME280;54636;51.684;5.142;2023-03-14T01:23:52;98999.00;;;10.70;93.35
67840;BME280;54636;51.684;5.142;2023-03-14T01:26:20;98996.28;;;10.56;95.14
67840;BME280;54636;51.684;5.142;2023-03-14T01:28:47;99002.34;;;10.63;96.62
67840;BME280;54636;51.684;5.142;2023-03-14T01:31:13;99000.25;;;10.42;99.94
67840;BME280;54636;51.684;5.142;2023-03-14T01:33:39;99004.38;;;10.36;100.00
67840;BME280;54636;51.684;5.142;2023-03-14T01:36:05;98979.81;;;10.15;100.00
67840;BME280;54636;51.684;5.142;2023-03-14T01:38:33;98989.63;;;10.18;100.00
67840;BME280;54636;51.684;5.142;2023-03-14T01:40:59;98981.16;;;10.08;100.00
67840;BME280;54636;51.684;5.142;2023-03-14T01:43:25;98972.38;;;10.02;100.00
67840;BME280;54636;51.684;5.142;2023-03-14T01:49:05;98971.34;;;10.05;100.00
67840;BME280;54636;51.684;5.142;2023-03-14T01:51:40;98973.75;;;10.09;100.00
67840;BME280;54636;51.684;5.142;2023-03-14T01:54:19;98972.59;;;10.04;100.00
67840;BME280;54636;51.684;5.142;2023-03-14T01:56:51;98972.72;;;10.12;100.00
67840;BME280;54636;51.684;5.142;2023-03-14T01:59:18;98972.50;;;10.10;100.00
67840;BME280;54636;51.684;5.142;2023-03-14T02:01:46;98966.44;;;9.90;100.00
67840;BME280;54636;51.684;5.142;2023-03-14T02:04:12;98964.13;;;9.95;100.00
67840;BME280;54636;51.684;5.142;2023-03-14T02:06:58;98962.47;;;9.91;100.00
67840;BME280;54636;51.684;5.142;2023-03-14T02:09:25;98952.44;;;9.86;100.00
67840;BME280;54636;51.684;5.142;2023-03-14T02:11:51;98949.63;;;9.79;100.00
67840;BME280;54636;51.684;5.142;2023-03-14T02:14:26;98909.16;;;9.54;100.00
67840;BME280;54636;51.684;5.142;2023-03-14T02:16:53;98948.50;;;9.74;100.00
67840;BME280;54636;51.684;5.142;2023-03-14T02:19:29;98941.91;;;9.83;100.00
67840;BME280;54636;51.684;5.142;2023-03-14T02:22:08;98924.91;;;9.69;100.00
67840;BME280;54636;51.684;5.142;2023-03-14T02:24:43;98935.47;;;9.73;100.00
67840;BME280;54636;51.684;5.142;2023-03-14T02:27:16;98928.56;;;9.72;100.00
67840;BME280;54636;51.684;5.142;2023-03-14T02:30:08;98937.31;;;9.78;100.00
67840;BME280;54636;51.684;5.142;2023-03-14T02:32:36;98920.84;;;9.76;100.00
67840;BME280;54636;51.684;5.142;2023-03-14T02:35:06;98923.16;;;9.72;100.00
67840;BME280;54636;51.684;5.142;2023-03-14T02:37:38;98925.84;;;9.85;100.00
67840;BME280;54636;51.684;5.142;2023-03-14T02:40:06;98941.59;;;9.86;100.00
67840;BME280;54636;51.684;5.142;2023-03-14T02:42:32;98923.03;;;9.90;100.00
67840;BME280;54636;51.684;5.142;2023-03-14T02:47:32;98920.44;;;9.98;100.00
67840;BME280;54636;51.684;5.142;2023-03-14T02:50:06;98917.63;;;9.90;100.00
67840;BME280;54636;51.684;5.142;2023-03-14T02:52:32;98920.22;;;9.96;100.00
67840;BME280;54636;51.684;5.142;2023-03-14T02:54:58;98912.09;;;9.96;100.00
67840;BME280;54636;51.684;5.142;2023-03-14T02:57:23;98926.28;;;9.89;100.00
67840;BME280;54636;51.684;5.142;2023-03-14T02:59:49;98911.78;;;9.86;100.00
67840;BME280;54636;51.684;5.142;2023-03-14T03:02:14;98912.28;;;9.85;100.00
67840;BME280;54636;51.684;5.142;2023-03-14T03:04:39;98908.03;;;9.89;100.00
67840;BME280;54636;51.684;5.142;2023-03-14T03:07:05;98911.25;;;9.88;100.00
67840;BME280;54636;51.684;5.142;2023-03-14T03:09:30;98921.47;;;9.95;100.00
67840;BME280;54636;51.684;5.142;2023-03-14T03:11:55;98911.97;;;9.88;100.00
67840;BME280;54636;51.684;5.142;2023-03-14T03:14:21;98921.78;;;9.91;100.00
67840;BME280;54636;51.684;5.142;2023-03-14T03:16:46;98870.47;;;9.54;100.00
67840;BME280;54636;51.684;5.142;2023-03-14T03:19:12;98901.53;;;9.79;100.00
67840;BME280;54636;51.684;5.142;2023-03-14T03:21:39;98892.69;;;9.66;100.00
67840;BME280;54636;51.684;5.142;2023-03-14T03:24:04;98908.88;;;9.71;100.00
67840;BME280;54636;51.684;5.142;2023-03-14T03:26:30;98899.78;;;9.69;100.00
67840;BME280;54636;51.684;5.142;2023-03-14T03:28:55;98912.50;;;9.87;100.00
67840;BME280;54636;51.684;5.142;2023-03-14T03:31:21;98910.41;;;9.80;100.00
67840;BME280;54636;51.684;5.142;2023-03-14T03:33:46;98907.28;;;9.76;100.00
67840;BME280;54636;51.684;5.142;2023-03-14T03:36:11;98907.19;;;9.81;100.00
67840;BME280;54636;51.684;5.142;2023-03-14T03:38:37;98912.31;;;9.72;100.00
67840;BME280;54636;51.684;5.142;2023-03-14T03:41:06;98908.22;;;9.78;100.00
67840;BME280;54636;51.684;5.142;2023-03-14T03:43:32;98903.53;;;9.79;100.00
67840;BME280;54636;51.684;5.142;2023-03-14T03:45:57;98906.25;;;9.79;100.00
67840;BME280;54636;51.684;5.142;2023-03-14T03:48:23;98901.03;;;9.81;100.00
67840;BME280;54636;51.684;5.142;2023-03-14T03:50:48;98904.25;;;9.79;100.00
67840;BME280;54636;51.684;5.142;2023-03-14T03:53:14;98894.66;;;9.78;100.00
67840;BME280;54636;51.684;5.142;2023-03-14T03:55:42;98900.09;;;9.78;100.00
67840;BME280;54636;51.684;5.142;2023-03-14T03:58:08;98899.69;;;9.74;100.00
67840;BME280;54636;51.684;5.142;2023-03-14T04:00:33;98905.63;;;9.73;100.00
67840;BME280;54636;51.684;5.142;2023-03-14T04:02:58;98908.53;;;9.88;100.00
67840;BME280;54636;51.684;5.142;2023-03-14T04:05:24;98875.16;;;9.53;100.00
67840;BME280;54636;51.684;5.142;2023-03-14T04:07:50;98870.78;;;9.50;100.00
67840;BME280;54636;51.684;5.142;2023-03-14T04:10:15;98908.00;;;9.76;100.00
67840;BME280;54636;51.684;5.142;2023-03-14T04:12:40;98895.09;;;9.69;100.00
67840;BME280;54636;51.684;5.142;2023-03-14T04:15:06;98896.84;;;9.80;100.00
67840;BME280;54636;51.684;5.142;2023-03-14T04:17:32;98889.56;;;9.75;100.00
67840;BME280;54636;51.684;5.142;2023-03-14T04:19:57;98890.81;;;9.74;100.00
67840;BME280;54636;51.684;5.142;2023-03-14T04:22:23;98890.81;;;9.87;100.00
67840;BME280;54636;51.684;5.142;2023-03-14T04:24:48;98893.94;;;9.78;100.00
67840;BME280;54636;51.684;5.142;2023-03-14T04:27:13;98872.25;;;9.65;100.00
67840;BME280;54636;51.684;5.142;2023-03-14T04:29:40;98886.88;;;9.75;100.00
67840;BME280;54636;51.684;5.142;2023-03-14T04:32:05;98881.44;;;9.62;100.00
67840;BME280;54636;51.684;5.142;2023-03-14T04:34:30;98884.97;;;9.56;100.00
67840;BME280;54636;51.684;5.142;2023-03-14T04:36:56;98894.69;;;9.65;100.00
67840;BME280;54636;51.684;5.142;2023-03-14T04:39:21;98896.53;;;9.57;100.00
67840;BME280;54636;51.684;5.142;2023-03-14T04:41:47;98887.16;;;9.58;100.00
67840;BME280;54636;51.684;5.142;2023-03-14T04:44:12;98888.19;;;9.55;100.00
67840;BME280;54636;51.684;5.142;2023-03-14T04:46:38;98893.09;;;9.56;100.00
67840;BME280;54636;51.684;5.142;2023-03-14T04:49:03;98879.25;;;9.60;100.00
67840;BME280;54636;51.684;5.142;2023-03-14T04:51:28;98890.94;;;9.68;100.00
67840;BME280;54636;51.684;5.142;2023-03-14T04:53:54;98894.34;;;9.82;100.00
67840;BME280;54636;51.684;5.142;2023-03-14T04:56:20;98870.69;;;9.56;100.00
67840;BME280;54636;51.684;5.142;2023-03-14T04:58:45;98876.75;;;9.62;100.00
67840;BME280;54636;51.684;5.142;2023-03-14T05:01:10;98886.22;;;9.82;100.00
67840;BME280;54636;51.684;5.142;2023-03-14T05:03:36;98865.16;;;9.62;100.00
67840;BME280;54636;51.684;5.142;2023-03-14T05:06:03;98877.69;;;9.65;100.00
67840;BME280;54636;51.684;5.142;2023-03-14T05:08:29;98841.59;;;9.43;100.00
67840;BME280;54636;51.684;5.142;2023-03-14T05:10:56;98833.78;;;9.40;100.00
67840;BME280;54636;51.684;5.142;2023-03-14T05:13:21;98868.00;;;9.69;100.00
67840;BME280;54636;51.684;5.142;2023-03-14T05:15:47;98866.84;;;9.65;100.00
67840;BME280;54636;51.684;5.142;2023-03-14T05:18:12;98822.00;;;9.37;100.00
67840;BME280;54636;51.684;5.142;2023-03-14T05:20:37;98855.38;;;9.58;100.00
67840;BME280;54636;51.684;5.142;2023-03-14T05:23:03;98854.53;;;9.50;100.00
67840;BME280;54636;51.684;5.142;2023-03-14T05:25:28;98860.97;;;9.47;100.00
67840;BME280;54636;51.684;5.142;2023-03-14T05:27:54;98855.13;;;9.43;100.00
67840;BME280;54636;51.684;5.142;2023-03-14T05:30:20;98853.56;;;9.35;100.00
67840;BME280;54636;51.684;5.142;2023-03-14T05:32:47;98850.84;;;9.35;100.00
67840;BME280;54636;51.684;5.142;2023-03-14T05:35:12;98846.78;;;9.28;100.00
67840;BME280;54636;51.684;5.142;2023-03-14T05:37:37;98851.47;;;9.28;100.00
67840;BME280;54636;51.684;5.142;2023-03-14T05:40:04;98833.72;;;9.13;100.00
67840;BME280;54636;51.684;5.142;2023-03-14T05:42:31;98849.47;;;9.15;100.00
67840;BME280;54636;51.684;5.142;2023-03-14T05:44:57;98856.56;;;9.18;100.00
67840;BME280;54636;51.684;5.142;2023-03-14T05:47:22;98861.66;;;9.21;100.00
67840;BME280;54636;51.684;5.142;2023-03-14T05:49:48;98838.13;;;9.30;100.00
67840;BME280;54636;51.684;5.142;2023-03-14T05:52:14;98845.88;;;9.39;100.00
67840;BME280;54636;51.684;5.142;2023-03-14T05:54:39;98835.31;;;9.22;100.00
67840;BME280;54636;51.684;5.142;2023-03-14T05:57:05;98856.19;;;9.40;100.00
67840;BME280;54636;51.684;5.142;2023-03-14T05:59:30;98850.84;;;9.35;100.00
67840;BME280;54636;51.684;5.142;2023-03-14T06:01:55;98858.16;;;9.40;100.00
67840;BME280;54636;51.684;5.142;2023-03-14T06:04:21;98853.88;;;9.44;100.00
67840;BME280;54636;51.684;5.142;2023-03-14T06:06:46;98857.00;;;9.35;100.00
67840;BME280;54636;51.684;5.142;2023-03-14T06:09:11;98864.41;;;9.35;100.00
67840;BME280;54636;51.684;5.142;2023-03-14T06:11:37;98858.97;;;9.35;100.00
67840;BME280;54636;51.684;5.142;2023-03-14T06:14:02;98864.50;;;9.29;100.00
67840;BME280;54636;51.684;5.142;2023-03-14T06:16:28;98859.91;;;9.24;100.00
67840;BME280;54636;51.684;5.142;2023-03-14T06:18:57;98856.63;;;9.12;100.00
67840;BME280;54636;51.684;5.142;2023-03-14T06:21:22;98859.78;;;9.16;100.00
67840;BME280;54636;51.684;5.142;2023-03-14T06:23:48;98861.53;;;9.14;100.00
67840;BME280;54636;51.684;5.142;2023-03-14T06:26:13;98855.50;;;9.08;100.00
67840;BME280;54636;51.684;5.142;2023-03-14T06:28:38;98869.06;;;9.21;100.00
67840;BME280;54636;51.684;5.142;2023-03-14T06:31:04;98870.22;;;9.25;100.00
67840;BME280;54636;51.684;5.142;2023-03-14T06:33:30;98854.78;;;9.20;100.00
67840;BME280;54636;51.684;5.142;2023-03-14T06:35:55;98848.34;;;9.23;100.00
67840;BME280;54636;51.684;5.142;2023-03-14T06:38:21;98864.59;;;9.23;100.00
67840;BME280;54636;51.684;5.142;2023-03-14T06:40:46;98862.41;;;9.22;100.00
67840;BME280;54636;51.684;5.142;2023-03-14T06:43:11;98862.41;;;9.22;100.00
67840;BME280;54636;51.684;5.142;2023-03-14T06:45:37;98869.50;;;9.25;100.00
67840;BME280;54636;51.684;5.142;2023-03-14T06:48:02;98871.69;;;9.27;100.00
67840;BME280;54636;51.684;5.142;2023-03-14T06:50:28;98930.28;;;9.11;100.00
67840;BME280;54636;51.684;5.142;2023-03-14T06:52:53;98957.06;;;9.14;100.00
67840;BME280;54636;51.684;5.142;2023-03-14T06:55:19;98907.50;;;8.50;100.00
67840;BME280;54636;51.684;5.142;2023-03-14T06:57:45;98971.28;;;8.45;100.00
67840;BME280;54636;51.684;5.142;2023-03-14T07:00:12;98982.44;;;8.12;100.00
67840;BME280;54636;51.684;5.142;2023-03-14T07:02:38;98977.47;;;7.91;100.00
67840;BME280;54636;51.684;5.142;2023-03-14T07:05:04;99000.25;;;7.77;100.00
67840;BME280;54636;51.684;5.142;2023-03-14T07:07:30;99009.72;;;7.59;100.00
67840;BME280;54636;51.684;5.142;2023-03-14T07:09:56;99015.44;;;7.50;100.00
67840;BME280;54636;51.684;5.142;2023-03-14T07:12:21;98978.31;;;7.21;100.00
67840;BME280;54636;51.684;5.142;2023-03-14T07:14:47;99038.78;;;7.48;100.00
67840;BME280;54636;51.684;5.142;2023-03-14T07:17:12;99045.75;;;7.32;100.00
67840;BME280;54636;51.684;5.142;2023-03-14T07:19:38;99042.13;;;7.18;100.00
67840;BME280;54636;51.684;5.142;2023-03-14T07:22:06;99045.69;;;7.02;100.00
67840;BME280;54636;51.684;5.142;2023-03-14T07:24:32;99058.91;;;7.06;100.00
67840;BME280;54636;51.684;5.142;2023-03-14T07:26:57;99057.72;;;7.01;100.00
67840;BME280;54636;51.684;5.142;2023-03-14T07:29:23;99081.22;;;7.12;100.00
67840;BME280;54636;51.684;5.142;2023-03-14T07:31:48;99091.72;;;7.15;100.00
67840;BME280;54636;51.684;5.142;2023-03-14T07:34:13;99086.81;;;7.19;100.00
67840;BME280;54636;51.684;5.142;2023-03-14T07:36:39;99098.84;;;7.18;100.00
67840;BME280;54636;51.684;5.142;2023-03-14T07:39:04;99095.91;;;7.16;100.00
67840;BME280;54636;51.684;5.142;2023-03-14T07:41:30;99113.53;;;7.28;100.00
67840;BME280;54636;51.684;5.142;2023-03-14T07:43:55;99124.81;;;7.27;100.00
67840;BME280;54636;51.684;5.142;2023-03-14T07:46:21;99134.84;;;7.38;100.00
67840;BME280;54636;51.684;5.142;2023-03-14T07:48:46;99148.13;;;7.30;100.00
67840;BME280;54636;51.684;5.142;2023-03-14T07:51:12;99130.81;;;7.03;100.00
67840;BME280;54636;51.684;5.142;2023-03-14T07:53:37;99163.88;;;7.20;100.00
67840;BME280;54636;51.684;5.142;2023-03-14T07:56:04;99174.19;;;7.16;100.00
67840;BME280;54636;51.684;5.142;2023-03-14T07:58:30;99189.47;;;7.14;100.00
67840;BME280;54636;51.684;5.142;2023-03-14T08:00:59;99171.84;;;6.96;100.00
67840;BME280;54636;51.684;5.142;2023-03-14T08:03:24;99191.41;;;7.13;100.00
67840;BME280;54636;51.684;5.142;2023-03-14T08:05:50;99212.72;;;7.22;100.00
67840;BME280;54636;51.684;5.142;2023-03-14T08:08:16;99218.34;;;7.30;100.00
67840;BME280;54636;51.684;5.142;2023-03-14T08:10:42;99214.50;;;7.14;100.00
67840;BME280;54636;51.684;5.142;2023-03-14T08:13:09;99220.09;;;7.16;100.00
67840;BME280;54636;51.684;5.142;2023-03-14T08:15:35;99247.84;;;7.22;100.00
67840;BME280;54636;51.684;5.142;2023-03-14T08:18:00;99250.78;;;7.24;100.00
67840;BME280;54636;51.684;5.142;2023-03-14T08:20:27;99257.88;;;7.27;100.00
67840;BME280;54636;51.684;5.142;2023-03-14T08:22:58;99276.53;;;7.25;100.00
67840;BME280;54636;51.684;5.142;2023-03-14T08:25:25;99279.97;;;7.32;100.00
67840;BME280;54636;51.684;5.142;2023-03-14T08:27:50;99286.81;;;7.44;100.00
67840;BME280;54636;51.684;5.142;2023-03-14T08:30:17;99298.34;;;7.50;100.00
67840;BME280;54636;51.684;5.142;2023-03-14T08:32:43;99259.84;;;7.21;100.00
67840;BME280;54636;51.684;5.142;2023-03-14T08:35:09;99307.94;;;7.51;100.00
67840;BME280;54636;51.684;5.142;2023-03-14T08:37:35;99315.53;;;7.52;100.00
67840;BME280;54636;51.684;5.142;2023-03-14T08:40:05;99327.28;;;7.66;100.00
67840;BME280;54636;51.684;5.142;2023-03-14T08:42:35;99333.72;;;7.57;100.00
67840;BME280;54636;51.684;5.142;2023-03-14T08:45:01;99336.19;;;7.50;100.00
67840;BME280;54636;51.684;5.142;2023-03-14T08:47:26;99357.03;;;7.55;100.00
67840;BME280;54636;51.684;5.142;2023-03-14T08:49:51;99357.06;;;7.49;100.00
67840;BME280;54636;51.684;5.142;2023-03-14T08:52:17;99361.47;;;7.41;100.00
67840;BME280;54636;51.684;5.142;2023-03-14T08:54:46;99383.34;;;7.49;100.00
67840;BME280;54636;51.684;5.142;2023-03-14T08:57:11;99390.72;;;7.37;100.00
67840;BME280;54636;51.684;5.142;2023-03-14T08:59:37;99392.44;;;7.29;100.00
67840;BME280;54636;51.684;5.142;2023-03-14T09:02:03;99420.66;;;7.34;100.00
67840;BME280;54636;51.684;5.142;2023-03-14T09:04:29;99431.47;;;7.11;100.00
67840;BME280;54636;51.684;5.142;2023-03-14T09:06:55;99451.34;;;6.97;100.00
67840;BME280;54636;51.684;5.142;2023-03-14T09:09:23;99458.09;;;6.65;100.00
67840;BME280;54636;51.684;5.142;2023-03-14T09:11:48;99481.81;;;6.38;100.00
67840;BME280;54636;51.684;5.142;2023-03-14T09:14:14;99489.38;;;6.34;100.00
67840;BME280;54636;51.684;5.142;2023-03-14T09:16:39;99507.19;;;6.20;100.00
67840;BME280;54636;51.684;5.142;2023-03-14T09:19:04;99487.44;;;5.98;100.00
67840;BME280;54636;51.684;5.142;2023-03-14T09:21:31;99519.88;;;6.09;100.00
67840;BME280;54636;51.684;5.142;2023-03-14T09:23:56;99531.34;;;6.04;100.00
67840;BME280;54636;51.684;5.142;2023-03-14T09:26:21;99556.81;;;6.03;100.00
67840;BME280;54636;51.684;5.142;2023-03-14T09:28:47;99519.00;;;5.60;100.00
67840;BME280;54636;51.684;5.142;2023-03-14T09:31:12;99561.63;;;5.61;100.00
67840;BME280;54636;51.684;5.142;2023-03-14T09:33:38;99594.25;;;5.69;100.00
67840;BME280;54636;51.684;5.142;2023-03-14T09:36:04;99601.91;;;5.76;100.00
67840;BME280;54636;51.684;5.142;2023-03-14T09:38:30;99616.66;;;5.81;100.00
67840;BME280;54636;51.684;5.142;2023-03-14T09:41:00;99614.13;;;5.98;100.00
67840;BME280;54636;51.684;5.142;2023-03-14T09:43:29;99617.28;;;5.96;100.00
67840;BME280;54636;51.684;5.142;2023-03-14T09:45:57;99629.06;;;5.99;100.00
67840;BME280;54636;51.684;5.142;2023-03-14T09:48:27;99640.91;;;6.07;100.00
67840;BME280;54636;51.684;5.142;2023-03-14T09:50:56;99645.09;;;6.08;100.00
67840;BME280;54636;51.684;5.142;2023-03-14T09:53:38;99663.44;;;6.04;100.00
67840;BME280;54636;51.684;5.142;2023-03-14T09:56:12;99672.56;;;6.12;100.00
67840;BME280;54636;51.684;5.142;2023-03-14T09:58:41;99681.44;;;6.18;100.00
67840;BME280;54636;51.684;5.142;2023-03-14T10:01:11;99681.97;;;6.22;100.00
67840;BME280;54636;51.684;5.142;2023-03-14T10:03:40;99687.84;;;6.20;100.00
67840;BME280;54636;51.684;5.142;2023-03-14T10:06:12;99707.56;;;6.32;100.00
67840;BME280;54636;51.684;5.142;2023-03-14T10:08:40;99711.94;;;6.30;100.00
67840;BME280;54636;51.684;5.142;2023-03-14T10:11:06;99732.38;;;6.36;100.00
67840;BME280;54636;51.684;5.142;2023-03-14T10:13:32;99739.88;;;6.26;100.00
67840;BME280;54636;51.684;5.142;2023-03-14T10:16:03;99745.53;;;6.28;100.00
67840;BME280;54636;51.684;5.142;2023-03-14T10:18:31;99773.19;;;6.49;100.00
67840;BME280;54636;51.684;5.142;2023-03-14T10:21:27;99768.13;;;6.63;100.00
67840;BME280;54636;51.684;5.142;2023-03-14T10:23:53;99784.72;;;6.50;100.00
67840;BME280;54636;51.684;5.142;2023-03-14T10:26:27;99790.81;;;6.45;100.00
67840;BME280;54636;51.684;5.142;2023-03-14T10:29:01;99809.22;;;6.46;100.00
67840;BME280;54636;51.684;5.142;2023-03-14T10:31:27;99824.31;;;6.38;100.00
67840;BME280;54636;51.684;5.142;2023-03-14T10:34:01;99831.25;;;6.45;100.00
67840;BME280;54636;51.684;5.142;2023-03-14T10:36:28;99829.34;;;6.51;100.00
67840;BME280;54636;51.684;5.142;2023-03-14T10:39:44;99847.50;;;6.76;100.00
67840;BME280;54636;51.684;5.142;2023-03-14T10:41:48;99840.03;;;6.66;100.00
67840;BME280;54636;51.684;5.142;2023-03-14T10:44:17;99858.59;;;6.84;100.00
67840;BME280;54636;51.684;5.142;2023-03-14T10:46:50;99872.84;;;7.16;100.00
67840;BME280;54636;51.684;5.142;2023-03-14T10:49:34;99875.06;;;7.12;100.00
67840;BME280;54636;51.684;5.142;2023-03-14T10:52:19;99905.44;;;7.07;100.00
67840;BME280;54636;51.684;5.142;2023-03-14T10:54:49;99909.53;;;6.97;100.00
67840;BME280;54636;51.684;5.142;2023-03-14T10:57:19;99930.22;;;6.79;100.00
67840;BME280;54636;51.684;5.142;2023-03-14T10:59:45;99922.78;;;6.74;100.00
67840;BME280;54636;51.684;5.142;2023-03-14T11:05:03;99969.56;;;6.66;100.00
67840;BME280;54636;51.684;5.142;2023-03-14T11:07:44;99987.84;;;6.36;100.00
67840;BME280;54636;51.684;5.142;2023-03-14T11:10:18;99998.06;;;5.97;100.00
67840;BME280;54636;51.684;5.142;2023-03-14T11:29:31;100049.31;;;6.32;100.00
67840;BME280;54636;51.684;5.142;2023-03-14T11:32:01;100046.78;;;6.43;99.81
67840;BME280;54636;51.684;5.142;2023-03-14T11:34:53;100053.22;;;6.31;100.00
67840;BME280;54636;51.684;5.142;2023-03-14T11:37:42;100069.53;;;6.07;100.00
67840;BME280;54636;51.684;5.142;2023-03-14T11:40:18;100029.03;;;5.57;100.00
67840;BME280;54636;51.684;5.142;2023-03-14T11:42:52;100079.69;;;5.97;100.00
67840;BME280;54636;51.684;5.142;2023-03-14T11:45:25;100087.66;;;6.06;100.00
67840;BME280;54636;51.684;5.142;2023-03-14T11:48:10;100085.34;;;6.14;100.00
67840;BME280;54636;51.684;5.142;2023-03-14T11:50:40;100089.50;;;6.30;100.00
67840;BME280;54636;51.684;5.142;2023-03-14T11:53:30;100065.91;;;6.24;100.00
67840;BME280;54636;51.684;5.142;2023-03-14T11:56:00;100098.13;;;6.48;100.00
67840;BME280;54636;51.684;5.142;2023-03-14T11:58:27;100105.75;;;6.70;99.10
67840;BME280;54636;51.684;5.142;2023-03-14T12:00:56;100116.38;;;6.74;97.00
67840;BME280;54636;51.684;5.142;2023-03-14T12:04:00;100123.78;;;6.79;98.85
67840;BME280;54636;51.684;5.142;2023-03-14T12:06:37;100119.56;;;7.13;100.00
67840;BME280;54636;51.684;5.142;2023-03-14T12:09:06;100133.31;;;7.55;95.00
67840;BME280;54636;51.684;5.142;2023-03-14T12:14:17;100106.16;;;7.44;92.55
67840;BME280;54636;51.684;5.142;2023-03-14T12:16:47;100136.88;;;7.47;85.14
67840;BME280;54636;51.684;5.142;2023-03-14T12:19:39;100165.72;;;7.55;90.39
67840;BME280;54636;51.684;5.142;2023-03-14T12:24:47;100172.38;;;7.80;82.55
67840;BME280;54636;51.684;5.142;2023-03-14T12:27:45;100176.94;;;7.69;78.11
67840;BME280;54636;51.684;5.142;2023-03-14T12:35:45;100187.06;;;7.33;68.74
67840;BME280;54636;51.684;5.142;2023-03-14T12:38:25;100189.38;;;7.40;71.04
67840;BME280;54636;51.684;5.142;2023-03-14T12:43:40;100203.22;;;7.48;66.23
67840;BME280;54636;51.684;5.142;2023-03-14T12:51:38;100194.38;;;7.47;61.27
67840;BME280;54636;51.684;5.142;2023-03-14T12:54:24;100223.63;;;7.69;64.24
67840;BME280;54636;51.684;5.142;2023-03-14T12:59:38;100234.78;;;8.03;58.89
67840;BME280;54636;51.684;5.142;2023-03-14T13:04:35;100260.31;;;8.22;58.89
67840;BME280;54636;51.684;5.142;2023-03-14T13:07:03;100262.53;;;8.23;56.87
67840;BME280;54636;51.684;5.142;2023-03-14T13:12:09;100275.75;;;8.36;60.88
67840;BME280;54636;51.684;5.142;2023-03-14T13:14:40;100274.25;;;8.35;57.26
67840;BME280;54636;51.684;5.142;2023-03-14T13:17:10;100281.69;;;8.40;58.01
67840;BME280;54636;51.684;5.142;2023-03-14T13:19:37;100294.22;;;8.38;56.04
67840;BME280;54636;51.684;5.142;2023-03-14T13:22:06;100295.34;;;8.31;58.96
67840;BME280;54636;51.684;5.142;2023-03-14T13:24:38;100280.28;;;8.24;57.73
67840;BME280;54636;51.684;5.142;2023-03-14T13:27:03;100302.53;;;8.34;59.56
67840;BME280;54636;51.684;5.142;2023-03-14T13:29:32;100304.94;;;8.32;58.97
67840;BME280;54636;51.684;5.142;2023-03-14T13:32:17;100316.34;;;8.36;60.25
67840;BME280;54636;51.684;5.142;2023-03-14T13:34:44;100306.88;;;8.52;57.69
67840;BME280;54636;51.684;5.142;2023-03-14T13:37:38;100335.91;;;8.51;57.38
67840;BME280;54636;51.684;5.142;2023-03-14T13:40:04;100340.00;;;8.41;55.87
67840;BME280;54636;51.684;5.142;2023-03-14T13:42:30;100336.41;;;8.30;57.74
67840;BME280;54636;51.684;5.142;2023-03-14T13:44:56;100351.91;;;8.29;57.22
67840;BME280;54636;51.684;5.142;2023-03-14T13:47:24;100347.22;;;8.09;56.75
67840;BME280;54636;51.684;5.142;2023-03-14T13:49:50;100340.88;;;7.92;57.02
67840;BME280;54636;51.684;5.142;2023-03-14T13:52:37;100378.94;;;8.09;59.03
67840;BME280;54636;51.684;5.142;2023-03-14T13:55:06;100364.19;;;7.89;60.04
67840;BME280;54636;51.684;5.142;2023-03-14T13:57:51;100393.06;;;7.98;59.86